Naples, Italy

12:54 AM CET on December 05, 2016 (GMT +0100)
Calata San Marco | | Change Station

Elev 0 ft 40.84 °N, 14.25 °E | Updated 5 minutes ago

Clear
Clear
57.7 °F
Feels Like 57.7 °F
N
3.1
Wind Variable Wind from NNW
Gusts 6.2 mph

Today
High -- | Low -- °F
--% Chance of Precip.
Yesterday
High -- | Low -- °F
Precip. -- in
Pressure 30.27 in
Visibility -9999.0 miles
Clouds
Dew Point 41 °F
Humidity 54%
Rainfall Not available.
Snow Depth Not available.
7:12 AM 4:34 PM
Waxing Crescent, 26% visible
METAR LIRM 042255Z 03007KT CAVOK 09/09 Q1025 RMK SKC VIS MIN 9999 WIND THR06 03008KT BLU
Pressure 30.27 in
Visibility -9999.0 miles
Clouds
Dew Point 41 °F
Humidity 54%
Rainfall Not available.
Snow Depth Not available.
7:12 AM 4:34 PM
Waxing Crescent, 26% visible
METAR LIRM 042255Z 03007KT CAVOK 09/09 Q1025 RMK SKC VIS MIN 9999 WIND THR06 03008KT BLU

10-Day Weather Forecast

×

Almanac

Astronomy

Dec. 05, 2016 Rise Set
Actual Time
Civil Twilight
Nautical Twilight
Astronomical Twilight
Moon
Length of Visible Light
Length of Day
Tomorrow will be .
, % of the Moon is Illuminated

Today's Extremes

Country Highs Country Lows

Community

WunderPhotos

Upload Photos

1,955,703 photos uploaded!

WunderBlog® & News

Nearby

Air Quality

  Air Quality AQ Index Pollutant
Not available.

Snow Depth

Station Depth Elevation

Earthquake Activity

City Distance Mag. Time & Date
Minimum magnitude displayed is 2.5.

Coastal Water Temperatures

Place Temperature

Stations

Nearby Weather Stations

Station Location Temp. Windchill Dew Point Humidity Wind Precip. Elev Updated Type